Time,TemperatureF,DewpointF,PressureIn,WindDirection,WindDirectionDegrees,WindSpeedMPH,WindSpeedGustMPH,Humidity,HourlyPrecipIn,Conditions,Clouds,dailyrainin,SoftwareType,DateUTC
2013-10-14 00:12:00,39.0,37.0,30.37,WNW,295,0.0,-999.0,93,-99.99,,,-99.99,,2013-10-14 05:12:00,
2013-10-14 00:23:00,40.0,38.0,30.37,WNW,295,0.0,-999.0,91,-99.99,,,-99.99,,2013-10-14 05:23:00,
2013-10-14 00:43:00,44.0,37.0,30.38,WNW,295,0.0,-999.0,77,-99.99,,,-99.99,,2013-10-14 05:43:00,
2013-10-14 00:52:00,46.0,37.0,30.38,WNW,296,0.0,-999.0,72,-99.99,,,-99.99,,2013-10-14 05:52:00,
2013-10-14 01:12:00,46.0,37.0,30.38,WNW,296,0.0,-999.0,72,-99.99,,,-99.99,,2013-10-14 06:12:00,
2013-10-14 01:22:00,45.0,37.0,30.38,WNW,298,0.0,-999.0,73,-99.99,,,-99.99,,2013-10-14 06:22:00,
2013-10-14 01:42:00,45.0,37.0,30.38,WNW,300,0.0,-999.0,74,-99.99,,,-99.99,,2013-10-14 06:42:00,
2013-10-14 01:52:00,45.0,38.0,30.38,WNW,300,0.0,-999.0,76,-99.99,,,-99.99,,2013-10-14 06:52:00,
2013-10-14 02:11:00,44.0,38.0,30.38,WNW,300,0.0,-999.0,78,-99.99,,,-99.99,,2013-10-14 07:11:00,
2013-10-14 02:22:00,43.0,37.0,30.39,WNW,300,0.0,-999.0,80,-99.99,,,-99.99,,2013-10-14 07:22:00,
2013-10-14 02:42:00,41.0,36.0,30.39,WNW,300,0.0,-999.0,83,-99.99,,,-99.99,,2013-10-14 07:42:00,
2013-10-14 02:52:00,39.0,35.0,30.40,WNW,300,0.0,-999.0,85,-99.99,,,-99.99,,2013-10-14 07:52:00,
2013-10-14 03:12:00,38.0,35.0,30.39,WNW,300,0.0,-999.0,88,-99.99,,,-99.99,,2013-10-14 08:12:00,
2013-10-14 03:22:00,38.0,35.0,30.39,WNW,300,0.0,-999.0,90,-99.99,,,-99.99,,2013-10-14 08:22:00,
2013-10-14 03:42:00,37.0,35.0,30.38,WNW,300,0.0,-999.0,91,-99.99,,,-99.99,,2013-10-14 08:42:00,
2013-10-14 03:52:00,37.0,35.0,30.38,WNW,300,0.0,-999.0,92,-99.99,,,-99.99,,2013-10-14 08:52:00,
2013-10-14 04:11:00,37.0,35.0,30.38,WNW,300,0.0,-999.0,92,-99.99,,,-99.99,,2013-10-14 09:11:00,
2013-10-14 04:22:00,37.0,35.0,30.38,WNW,300,0.0,-999.0,93,-99.99,,,-99.99,,2013-10-14 09:22:00,
2013-10-14 04:43:00,37.0,35.0,30.38,WNW,300,0.0,-999.0,94,-99.99,,,-99.99,,2013-10-14 09:43:00,
2013-10-14 04:53:00,38.0,36.0,30.38,WNW,300,0.0,-999.0,94,-99.99,,,-99.99,,2013-10-14 09:53:00,
2013-10-14 05:12:00,38.0,36.0,30.38,WNW,300,0.0,-999.0,94,-99.99,,,-99.99,,2013-10-14 10:12:00,
2013-10-14 05:23:00,38.0,36.0,30.37,WNW,300,0.0,-999.0,94,-99.99,,,-99.99,,2013-10-14 10:23:00,
2013-10-14 05:42:00,40.0,39.0,30.37,WNW,300,0.0,-999.0,96,-99.99,,,-99.99,,2013-10-14 10:42:00,
2013-10-14 05:53:00,42.0,41.0,30.37,WNW,300,0.0,-999.0,95,-99.99,,,-99.99,,2013-10-14 10:53:00,
2013-10-14 06:11:00,42.0,40.0,30.37,WNW,300,0.0,-999.0,91,-99.99,,,-99.99,,2013-10-14 11:11:00,
2013-10-14 06:22:00,41.0,38.0,30.38,WNW,300,0.0,-999.0,90,-99.99,,,-99.99,,2013-10-14 11:22:00,
2013-10-14 06:42:00,40.0,38.0,30.38,WNW,300,0.0,-999.0,91,-99.99,,,-99.99,,2013-10-14 11:42:00,
2013-10-14 06:52:00,39.0,37.0,30.38,WNW,300,0.0,-999.0,91,-99.99,,,-99.99,,2013-10-14 11:52:00,
2013-10-14 07:12:00,38.0,36.0,30.38,WNW,300,0.0,-999.0,91,-99.99,,,-99.99,,2013-10-14 12:12:00,
2013-10-14 07:22:00,37.0,35.0,30.38,WNW,300,0.0,-999.0,92,-99.99,,,-99.99,,2013-10-14 12:22:00,
2013-10-14 07:42:00,36.0,34.0,30.37,WNW,300,0.0,-999.0,93,-99.99,,,-99.99,,2013-10-14 12:42:00,
2013-10-14 07:52:00,37.0,35.0,30.38,WNW,300,0.0,-999.0,94,-99.99,,,-99.99,,2013-10-14 12:52:00,
2013-10-14 08:11:00,36.0,34.0,30.37,WNW,300,0.0,-999.0,94,-99.99,,,-99.99,,2013-10-14 13:11:00,
2013-10-14 08:21:00,36.0,35.0,30.37,WNW,300,0.0,-999.0,95,-99.99,,,-99.99,,2013-10-14 13:21:00,
2013-10-14 08:42:00,39.0,38.0,30.37,WNW,300,0.0,-999.0,97,-99.99,,,-99.99,,2013-10-14 13:42:00,
2013-10-14 08:52:00,42.0,41.0,30.37,WNW,302,0.0,-999.0,97,-99.99,,,-99.99,,2013-10-14 13:52:00,
2013-10-14 09:11:00,44.0,42.0,30.37,North,355,0.0,-999.0,94,-99.99,,,-99.99,,2013-10-14 14:11:00,
2013-10-14 09:22:00,46.0,43.0,30.37,NNE,33,0.0,-999.0,89,-99.99,,,-99.99,,2013-10-14 14:22:00,
2013-10-14 09:42:00,48.0,44.0,30.37,NE,55,0.0,-999.0,86,-99.99,,,-99.99,,2013-10-14 14:42:00,
2013-10-14 09:52:00,50.0,45.0,30.36,ENE,76,0.0,-999.0,82,-99.99,,,-99.99,,2013-10-14 14:52:00,
2013-10-14 10:11:00,52.0,45.0,30.36,ENE,70,1.0,-999.0,78,-99.99,,,-99.99,,2013-10-14 15:11:00,
2013-10-14 10:21:00,52.0,45.0,30.37,SSE,149,0.0,-999.0,77,-99.99,,,-99.99,,2013-10-14 15:21:00,
2013-10-14 10:44:00,54.0,47.0,30.37,NE,51,0.0,-999.0,76,-99.99,,,-99.99,,2013-10-14 15:44:00,
2013-10-14 10:54:00,55.0,47.0,30.36,South,173,0.0,-999.0,75,-99.99,,,-99.99,,2013-10-14 15:54:00,
2013-10-14 11:13:00,56.0,47.0,30.36,NE,44,0.0,-999.0,72,-99.99,,,-99.99,,2013-10-14 16:13:00,
2013-10-14 11:23:00,57.0,48.0,30.35,ESE,116,0.0,-999.0,72,-99.99,,,-99.99,,2013-10-14 16:23:00,
2013-10-14 11:53:00,58.0,47.0,30.33,ENE,68,3.0,-999.0,66,-99.99,,,-99.99,,2013-10-14 16:53:00,
2013-10-14 12:11:00,59.0,47.0,30.32,ENE,58,2.0,-999.0,65,-99.99,,,-99.99,,2013-10-14 17:11:00,
2013-10-14 12:22:00,59.0,47.0,30.32,ENE,66,1.0,-999.0,65,-99.99,,,-99.99,,2013-10-14 17:22:00,
2013-10-14 12:42:00,60.0,47.0,30.30,East,84,2.0,-999.0,63,-99.99,,,-99.99,,2013-10-14 17:42:00,
2013-10-14 12:52:00,60.0,46.0,30.29,ENE,68,2.0,-999.0,59,-99.99,,,-99.99,,2013-10-14 17:52:00,
2013-10-14 13:12:00,61.0,47.0,30.28,NE,53,2.0,-999.0,59,-99.99,,,-99.99,,2013-10-14 18:12:00,
2013-10-14 13:22:00,61.0,47.0,30.27,East,86,1.0,-999.0,60,-99.99,,,-99.99,,2013-10-14 18:22:00,
2013-10-14 13:42:00,61.0,46.0,30.26,ENE,76,1.0,-999.0,58,-99.99,,,-99.99,,2013-10-14 18:42:00,
2013-10-14 13:52:00,61.0,46.0,30.25,ENE,63,2.0,-999.0,58,-99.99,,,-99.99,,2013-10-14 18:52:00,
2013-10-14 14:11:00,62.0,45.0,30.24,ENE,74,2.0,-999.0,54,-99.99,,,-99.99,,2013-10-14 19:11:00,
2013-10-14 14:22:00,62.0,46.0,30.23,ENE,73,3.0,-999.0,55,-99.99,,,-99.99,,2013-10-14 19:22:00,
2013-10-14 14:42:00,63.0,45.0,30.22,NE,49,2.0,-999.0,52,-99.99,,,-99.99,,2013-10-14 19:42:00,
2013-10-14 14:52:00,63.0,45.0,30.22,ENE,65,0.0,-999.0,52,-99.99,,,-99.99,,2013-10-14 19:52:00,
2013-10-14 15:11:00,64.0,45.0,30.22,ENE,61,1.0,-999.0,50,-99.99,,,-99.99,,2013-10-14 20:11:00,
2013-10-14 15:22:00,65.0,44.0,30.21,ESE,113,1.0,-999.0,46,-99.99,,,-99.99,,2013-10-14 20:22:00,
2013-10-14 15:43:00,65.0,44.0,30.19,East,84,2.0,-999.0,46,-99.99,,,-99.99,,2013-10-14 20:43:00,
2013-10-14 15:52:00,65.0,44.0,30.19,ENE,62,2.0,-999.0,47,-99.99,,,-99.99,,2013-10-14 20:52:00,
2013-10-14 16:22:00,65.0,43.0,30.18,East,96,2.0,-999.0,44,-99.99,,,-99.99,,2013-10-14 21:22:00,
2013-10-14 16:44:00,65.0,42.0,30.16,SE,130,2.0,-999.0,43,-99.99,,,-99.99,,2013-10-14 21:44:00,
2013-10-14 16:54:00,65.0,41.0,30.16,East,80,2.0,-999.0,42,-99.99,,,-99.99,,2013-10-14 21:54:00,
2013-10-14 17:24:00,65.0,42.0,30.16,East,87,1.0,-999.0,43,-99.99,,,-99.99,,2013-10-14 22:24:00,
2013-10-14 17:43:00,64.0,42.0,30.16,ENE,61,0.0,-999.0,44,-99.99,,,-99.99,,2013-10-14 22:43:00,
2013-10-14 17:54:00,63.0,42.0,30.16,ENE,74,0.0,-999.0,46,-99.99,,,-99.99,,2013-10-14 22:54:00,
2013-10-14 18:12:00,62.0,43.0,30.16,ENE,74,0.0,-999.0,50,-99.99,,,-99.99,,2013-10-14 23:12:00,
2013-10-14 18:22:00,60.0,43.0,30.16,ENE,74,0.0,-999.0,53,-99.99,,,-99.99,,2013-10-14 23:22:00,
2013-10-14 18:42:00,58.0,43.0,30.16,ENE,74,0.0,-999.0,58,-99.99,,,-99.99,,2013-10-14 23:42:00,
2013-10-14 19:12:00,57.0,44.0,30.14,ENE,59,0.0,-999.0,61,-99.99,,,-99.99,,2013-10-15 00:12:00,
2013-10-14 19:22:00,56.0,43.0,30.14,ENE,59,0.0,-999.0,62,-99.99,,,-99.99,,2013-10-15 00:22:00,
2013-10-14 19:42:00,55.0,43.0,30.14,ENE,60,0.0,-999.0,64,-99.99,,,-99.99,,2013-10-15 00:42:00,
2013-10-14 19:52:00,55.0,43.0,30.14,ENE,60,0.0,-999.0,65,-99.99,,,-99.99,,2013-10-15 00:52:00,
2013-10-14 20:12:00,54.0,43.0,30.13,ENE,60,0.0,-999.0,66,-99.99,,,-99.99,,2013-10-15 01:12:00,
2013-10-14 20:22:00,53.0,43.0,30.13,ENE,60,0.0,-999.0,68,-99.99,,,-99.99,,2013-10-15 01:22:00,
2013-10-14 20:32:00,53.0,43.0,30.13,ENE,60,0.0,-999.0,68,-99.99,,,-99.99,,2013-10-15 01:32:00,
2013-10-14 20:42:00,53.0,43.0,30.13,ENE,60,0.0,-999.0,68,-99.99,,,-99.99,,2013-10-15 01:42:00,
2013-10-14 20:52:00,53.0,43.0,30.12,ENE,57,0.0,-999.0,69,-99.99,,,-99.99,,2013-10-15 01:52:00,
2013-10-14 21:12:00,53.0,44.0,30.13,ENE,57,1.0,-999.0,71,-99.99,,,-99.99,,2013-10-15 02:12:00,
2013-10-14 21:22:00,53.0,45.0,30.13,East,82,0.0,-999.0,73,-99.99,,,-99.99,,2013-10-15 02:22:00,
2013-10-14 21:42:00,52.0,44.0,30.13,ENE,73,0.0,-999.0,75,-99.99,,,-99.99,,2013-10-15 02:42:00,
2013-10-14 21:52:00,52.0,45.0,30.13,East,79,0.0,-999.0,78,-99.99,,,-99.99,,2013-10-15 02:52:00,
2013-10-14 22:12:00,51.0,45.0,30.12,East,79,0.0,-999.0,79,-99.99,,,-99.99,,2013-10-15 03:12:00,
2013-10-14 22:23:00,51.0,45.0,30.12,East,79,0.0,-999.0,81,-99.99,,,-99.99,,2013-10-15 03:23:00,
2013-10-14 22:44:00,51.0,46.0,30.12,East,79,0.0,-999.0,82,-99.99,,,-99.99,,2013-10-15 03:44:00,
2013-10-14 22:55:00,51.0,46.0,30.12,East,79,0.0,-999.0,82,-99.99,,,-99.99,,2013-10-15 03:55:00,
2013-10-14 23:14:00,51.0,46.0,30.10,East,79,0.0,-999.0,82,-99.99,,,-99.99,,2013-10-15 04:14:00,
2013-10-14 23:24:00,51.0,46.0,30.10,ENE,70,0.0,-999.0,82,-99.99,,,-99.99,,2013-10-15 04:24:00,
2013-10-14 23:43:00,51.0,45.0,30.10,ENE,64,0.0,-999.0,81,-99.99,,,-99.99,,2013-10-15 04:43:00,
2013-10-14 23:54:00,52.0,46.0,30.09,ENE,70,0.0,-999.0,79,-99.99,,,-99.99,,2013-10-15 04:54:00,